Aeroporto :
LOGIN :

Iscrizione | Disclaimer

   EN    FR    IT 

 










Sommario :    VFR   VFR Marginale   IFR   IFR Intensivo   IFR Molto Intensivo
Visibilità : 
Base nubi : 
>= 8 km
>= 3000ft
5 / 8 km
1000 / 3000 ft
1500m / 5 km
500 / 1000 ft
800 / 1500m
200 / 500 ft
< 800m
< 200 ft
Simboli :   Temporali  Nebbia  Neve Forte  Precipitazioni Forti  Vento > 20 kt
SIGMETs :   Varie  Temporali  Ghiacco  Turbolenza  Onda orograficha  Ceneri Vulcaniche






- Altitudine del aeroporto : 90 ft
- Codice IATA : NTE


LFRS - Nantes

ULTIMO METAR :
  • 211600Z AUTO 32007KT 280V360 9999 -RA FEW035/// SCT050/// BKN066/// ///CB 14/13 Q1011 TEMPO VRB15G25KT 2500 TSRA

METARs OBSOLETI :
  • 211530Z AUTO 29009KT 260V340 6000 -RA FEW018/// BKN030/// BKN040/// ///CB 15/13 Q1011 TEMPO VRB15G25KT 2500 TSRA
  • 211500Z AUTO 26007KT 9999 SCT037/// BKN043/// BKN050/// ///CB 16/14 Q1010 TEMPO VRB15G25KT 2500 TSRA
  • 211430Z AUTO 24007KT 9999 VCTS SCT034/// BKN041/// BKN054/// ///CB 15/12 Q1010 TEMPO VRB15G25KT 2500 TSRA
  • 211400Z AUTO 24007KT 9999 -TSRA FEW045/// SCT070/// BKN092/// ///CB 16/13 Q1010 TEMPO VRB15G25KT 2500 TSRA
  • 211330Z AUTO 30007KT 250V350 9999 VCTS FEW026/// SCT035/// BKN056/// //////CB 18/12 Q1009 TEMPO VRB15G25KT 2500 TSRA
  • 211300Z AUTO 30008KT 270V360 9999 FEW025/// BKN086/// BKN130/// //////CB 18/12 Q1010 TEMPO VRB15G25KT 2500 TSRA
  • 211230Z AUTO 29009KT 260V320 9999 SCT025/// SCT038/// BKN048/// ///CB 18/13 Q1010 TEMPO VRB15G25KT 2500 TSRA
  • 211200Z AUTO 33005KT 280V030 9999 SCT026/// BKN058/// BKN082/// ///CB 19/14 Q1010 TEMPO 4000 -SHRA
  • 211130Z AUTO 32005KT 290V350 9999 SCT026/// BKN048/// BKN062/// //////CB 17/13 Q1010 TEMPO 4500 -SHRA
  • 211100Z AUTO 35004KT 300V040 9999 FEW019/// SCT042/// BKN068/// ///CB 17/13 Q1010 TEMPO 4500 -SHRA

TAF TAF LFRS
Valido dal 21 a 12 ore il 22 a 18 ore UTC


211100Z 2112/2218 33004KT 9999 SCT020 BKN025
TEMPO 2112/2119 4000 -SHRA BKN030CB
PROB40
TEMPO 2114/2118 VRB15G25KT 2500 TSRA
PROB30
TEMPO 2200/2206 -SHRA SCT070TCU
PROB40
TEMPO 2209/2215 2500 SHRA BKN030CB
ATIS : +33 2 40 05 12 74



MetMap, La meteo Aeronautica in un colpo d'occhio ! - Copyright ORBIFLY Dicembre 2007 - Disclaimer

ORBIFLY MET'MAP TEAM :

Programmazione e sviluppo : Alexandra Zaïnal
Concezione : Baudouin d'Aumeries
Supporto tecnico e logistico : Manuel Goepfert
Aiuto : Marc-Olivier Méhu
Aiuto per la traduzione : Arnaldo La Scala




FONTI E CREDITI :

   NOAA